KDAB/DAB METAR and TAF weather

Enter ICAO airport designator
Station Type Date Time Source
KDAB METAR 2022/05/26 04:53 UTC NOAA

KDAB 260453Z VRB04KT 10SM CLR 26/22 A3014 RMK AO2 SLP204 T02560217 403060244


Station Type Date Time Source
KDAB Decoded METAR 2022/05/26 04:53 UTC NOAA

DAYTONA BEACH INTERNATIONAL, FL, United States (KDAB) 29-10N 81-04W 9M
May 26, 2022 - 12:53 AM EDT / 2022.05.26 0453 UTC
Wind: Variable at 5 MPH (4 KT):0
Visibility: 10 mile(s):0
Sky conditions: clear
Temperature: 78.1 F (25.6 C)
Dew Point: 71.1 F (21.7 C)
Relative Humidity: 79%
Pressure (altimeter): 30.14 in. Hg (1020 hPa)
ob: KDAB 260453Z VRB04KT 10SM CLR 26/22 A3014 RMK AO2 SLP204 T02560217 403060244
cycle: 5

Station Type Date Time Source
KDAB TAF 2022/05/25 18:33 UTC NOAA

TAF KDAB 251724Z 2518/2618 11012G18KT P6SM SCT040 BKN250
FM260000 12004KT P6SM FEW040 BKN250
FM261400 14008KT P6SM SCT040 BKN250

Example: see airport list